sensor_id;sensor_type;location;lat;lon;timestamp;P1;durP1;ratioP1;P2;durP2;ratioP2
29422;SDS011;16399;51.686;8.684;2023-06-24T00:01:37;8.53;;;5.65;;
29422;SDS011;16399;51.686;8.684;2023-06-24T00:04:39;11.20;;;6.00;;
29422;SDS011;16399;51.686;8.684;2023-06-24T00:07:41;8.90;;;5.03;;
29422;SDS011;16399;51.686;8.684;2023-06-24T00:10:47;11.10;;;5.90;;
29422;SDS011;16399;51.686;8.684;2023-06-24T00:13:50;7.92;;;5.70;;
29422;SDS011;16399;51.686;8.684;2023-06-24T00:16:52;11.10;;;5.58;;
29422;SDS011;16399;51.686;8.684;2023-06-24T00:19:56;10.35;;;6.15;;
29422;SDS011;16399;51.686;8.684;2023-06-24T00:22:58;9.68;;;5.78;;
29422;SDS011;16399;51.686;8.684;2023-06-24T00:26:01;9.95;;;5.62;;
29422;SDS011;16399;51.686;8.684;2023-06-24T00:29:05;12.30;;;5.85;;
29422;SDS011;16399;51.686;8.684;2023-06-24T00:32:07;10.93;;;6.20;;
29422;SDS011;16399;51.686;8.684;2023-06-24T00:35:10;11.18;;;6.33;;
29422;SDS011;16399;51.686;8.684;2023-06-24T00:38:14;8.85;;;5.70;;
29422;SDS011;16399;51.686;8.684;2023-06-24T00:41:16;13.03;;;6.37;;
29422;SDS011;16399;51.686;8.684;2023-06-24T00:44:19;8.90;;;5.87;;
29422;SDS011;16399;51.686;8.684;2023-06-24T00:47:21;9.45;;;5.47;;
29422;SDS011;16399;51.686;8.684;2023-06-24T00:50:24;8.33;;;5.20;;
29422;SDS011;16399;51.686;8.684;2023-06-24T00:53:26;9.85;;;5.72;;
29422;SDS011;16399;51.686;8.684;2023-06-24T00:56:33;8.43;;;5.33;;
29422;SDS011;16399;51.686;8.684;2023-06-24T00:59:39;12.03;;;5.78;;
29422;SDS011;16399;51.686;8.684;2023-06-24T01:02:43;10.40;;;5.60;;
29422;SDS011;16399;51.686;8.684;2023-06-24T01:05:47;12.82;;;5.53;;
29422;SDS011;16399;51.686;8.684;2023-06-24T01:08:50;9.20;;;5.30;;
29422;SDS011;16399;51.686;8.684;2023-06-24T01:11:54;11.83;;;5.92;;
29422;SDS011;16399;51.686;8.684;2023-06-24T01:14:57;10.90;;;6.03;;
29422;SDS011;16399;51.686;8.684;2023-06-24T01:21:10;13.40;;;5.67;;
29422;SDS011;16399;51.686;8.684;2023-06-24T01:27:57;9.40;;;5.58;;
29422;SDS011;16399;51.686;8.684;2023-06-24T01:31:23;10.13;;;5.22;;
29422;SDS011;16399;51.686;8.684;2023-06-24T01:34:32;10.15;;;5.17;;
29422;SDS011;16399;51.686;8.684;2023-06-24T01:37:41;10.08;;;5.95;;
29422;SDS011;16399;51.686;8.684;2023-06-24T01:40:44;15.13;;;6.15;;
29422;SDS011;16399;51.686;8.684;2023-06-24T01:43:47;11.00;;;5.93;;
29422;SDS011;16399;51.686;8.684;2023-06-24T01:46:55;9.68;;;5.55;;
29422;SDS011;16399;51.686;8.684;2023-06-24T01:49:59;9.78;;;5.83;;
29422;SDS011;16399;51.686;8.684;2023-06-24T01:53:04;10.98;;;5.70;;
29422;SDS011;16399;51.686;8.684;2023-06-24T01:59:11;13.43;;;6.20;;
29422;SDS011;16399;51.686;8.684;2023-06-24T02:02:15;10.73;;;5.43;;
29422;SDS011;16399;51.686;8.684;2023-06-24T02:05:21;13.68;;;6.22;;
29422;SDS011;16399;51.686;8.684;2023-06-24T02:08:25;14.53;;;6.00;;
29422;SDS011;16399;51.686;8.684;2023-06-24T02:11:30;10.88;;;6.08;;
29422;SDS011;16399;51.686;8.684;2023-06-24T02:14:34;10.23;;;5.60;;
29422;SDS011;16399;51.686;8.684;2023-06-24T02:17:37;12.05;;;6.12;;
29422;SDS011;16399;51.686;8.684;2023-06-24T02:20:41;14.70;;;6.28;;
29422;SDS011;16399;51.686;8.684;2023-06-24T02:23:45;11.22;;;5.35;;
29422;SDS011;16399;51.686;8.684;2023-06-24T02:26:49;10.10;;;5.47;;
29422;SDS011;16399;51.686;8.684;2023-06-24T02:29:52;10.18;;;5.97;;
29422;SDS011;16399;51.686;8.684;2023-06-24T02:32:55;10.65;;;5.53;;
29422;SDS011;16399;51.686;8.684;2023-06-24T02:35:57;17.27;;;7.35;;
29422;SDS011;16399;51.686;8.684;2023-06-24T02:39:00;11.50;;;6.00;;
29422;SDS011;16399;51.686;8.684;2023-06-24T02:42:02;11.90;;;6.00;;
29422;SDS011;16399;51.686;8.684;2023-06-24T02:45:05;12.25;;;5.62;;
29422;SDS011;16399;51.686;8.684;2023-06-24T02:48:08;10.00;;;6.08;;
29422;SDS011;16399;51.686;8.684;2023-06-24T02:51:12;12.78;;;6.22;;
29422;SDS011;16399;51.686;8.684;2023-06-24T02:54:15;10.65;;;5.90;;
29422;SDS011;16399;51.686;8.684;2023-06-24T02:57:17;12.33;;;6.30;;
29422;SDS011;16399;51.686;8.684;2023-06-24T03:00:21;13.55;;;6.15;;
29422;SDS011;16399;51.686;8.684;2023-06-24T03:03:23;14.40;;;6.42;;
29422;SDS011;16399;51.686;8.684;2023-06-24T03:06:25;13.43;;;6.00;;
29422;SDS011;16399;51.686;8.684;2023-06-24T03:09:32;11.75;;;6.42;;
29422;SDS011;16399;51.686;8.684;2023-06-24T03:12:34;14.85;;;5.97;;
29422;SDS011;16399;51.686;8.684;2023-06-24T03:15:36;12.55;;;6.12;;
29422;SDS011;16399;51.686;8.684;2023-06-24T03:18:41;9.73;;;6.03;;
29422;SDS011;16399;51.686;8.684;2023-06-24T03:21:43;12.82;;;6.20;;
29422;SDS011;16399;51.686;8.684;2023-06-24T03:24:46;14.03;;;5.75;;
29422;SDS011;16399;51.686;8.684;2023-06-24T03:27:49;13.32;;;6.05;;
29422;SDS011;16399;51.686;8.684;2023-06-24T03:30:51;16.67;;;6.22;;
29422;SDS011;16399;51.686;8.684;2023-06-24T03:33:54;14.38;;;6.90;;
29422;SDS011;16399;51.686;8.684;2023-06-24T03:36:56;10.25;;;5.37;;
29422;SDS011;16399;51.686;8.684;2023-06-24T03:39:58;14.95;;;6.17;;
29422;SDS011;16399;51.686;8.684;2023-06-24T03:43:01;8.85;;;5.72;;
29422;SDS011;16399;51.686;8.684;2023-06-24T03:46:03;12.53;;;5.90;;
29422;SDS011;16399;51.686;8.684;2023-06-24T03:49:05;11.55;;;5.65;;
29422;SDS011;16399;51.686;8.684;2023-06-24T03:52:08;12.33;;;6.33;;
29422;SDS011;16399;51.686;8.684;2023-06-24T03:55:10;15.48;;;5.83;;
29422;SDS011;16399;51.686;8.684;2023-06-24T03:58:13;8.60;;;5.65;;
29422;SDS011;16399;51.686;8.684;2023-06-24T04:01:17;13.32;;;5.45;;
29422;SDS011;16399;51.686;8.684;2023-06-24T04:04:19;10.80;;;5.25;;
29422;SDS011;16399;51.686;8.684;2023-06-24T04:07:23;10.50;;;4.97;;
29422;SDS011;16399;51.686;8.684;2023-06-24T04:10:29;17.57;;;5.12;;
29422;SDS011;16399;51.686;8.684;2023-06-24T04:13:31;12.13;;;5.40;;
29422;SDS011;16399;51.686;8.684;2023-06-24T04:16:34;10.18;;;4.75;;
29422;SDS011;16399;51.686;8.684;2023-06-24T04:19:37;10.03;;;5.00;;
29422;SDS011;16399;51.686;8.684;2023-06-24T04:22:40;13.45;;;5.30;;
29422;SDS011;16399;51.686;8.684;2023-06-24T04:25:43;9.43;;;5.15;;
29422;SDS011;16399;51.686;8.684;2023-06-24T04:28:45;14.20;;;5.20;;
29422;SDS011;16399;51.686;8.684;2023-06-24T04:31:48;14.90;;;4.87;;
29422;SDS011;16399;51.686;8.684;2023-06-24T04:34:50;14.95;;;5.28;;
29422;SDS011;16399;51.686;8.684;2023-06-24T04:37:52;9.65;;;5.17;;
29422;SDS011;16399;51.686;8.684;2023-06-24T04:40:55;15.78;;;4.85;;
29422;SDS011;16399;51.686;8.684;2023-06-24T04:43:59;14.03;;;6.53;;
29422;SDS011;16399;51.686;8.684;2023-06-24T04:47:01;10.95;;;5.33;;
29422;SDS011;16399;51.686;8.684;2023-06-24T04:50:03;9.28;;;4.92;;
29422;SDS011;16399;51.686;8.684;2023-06-24T04:53:06;17.82;;;5.05;;
29422;SDS011;16399;51.686;8.684;2023-06-24T04:56:09;9.65;;;4.80;;
29422;SDS011;16399;51.686;8.684;2023-06-24T04:59:11;8.83;;;4.50;;
29422;SDS011;16399;51.686;8.684;2023-06-24T05:02:13;11.63;;;4.87;;
29422;SDS011;16399;51.686;8.684;2023-06-24T05:05:16;7.45;;;4.83;;
29422;SDS011;16399;51.686;8.684;2023-06-24T05:08:18;10.70;;;4.80;;
29422;SDS011;16399;51.686;8.684;2023-06-24T05:11:20;13.50;;;5.65;;
29422;SDS011;16399;51.686;8.684;2023-06-24T05:14:22;9.73;;;4.78;;
29422;SDS011;16399;51.686;8.684;2023-06-24T05:17:25;11.25;;;5.67;;
29422;SDS011;16399;51.686;8.684;2023-06-24T05:20:27;8.55;;;5.03;;
29422;SDS011;16399;51.686;8.684;2023-06-24T05:23:29;7.62;;;4.97;;
29422;SDS011;16399;51.686;8.684;2023-06-24T05:26:32;8.40;;;4.83;;
29422;SDS011;16399;51.686;8.684;2023-06-24T05:29:34;10.80;;;4.67;;
29422;SDS011;16399;51.686;8.684;2023-06-24T05:32:36;14.43;;;4.90;;
29422;SDS011;16399;51.686;8.684;2023-06-24T05:35:38;12.45;;;5.28;;
29422;SDS011;16399;51.686;8.684;2023-06-24T05:38:42;10.78;;;4.75;;
29422;SDS011;16399;51.686;8.684;2023-06-24T05:41:44;10.05;;;4.97;;
29422;SDS011;16399;51.686;8.684;2023-06-24T05:44:48;9.83;;;5.50;;
29422;SDS011;16399;51.686;8.684;2023-06-24T05:47:51;17.92;;;5.53;;
29422;SDS011;16399;51.686;8.684;2023-06-24T05:50:53;9.58;;;4.72;;
29422;SDS011;16399;51.686;8.684;2023-06-24T05:53:55;8.70;;;4.37;;
29422;SDS011;16399;51.686;8.684;2023-06-24T05:56:58;11.12;;;4.53;;
29422;SDS011;16399;51.686;8.684;2023-06-24T06:00:00;10.72;;;4.30;;
29422;SDS011;16399;51.686;8.684;2023-06-24T06:03:04;10.35;;;5.08;;
29422;SDS011;16399;51.686;8.684;2023-06-24T06:06:06;7.33;;;4.28;;
29422;SDS011;16399;51.686;8.684;2023-06-24T06:09:08;9.33;;;4.70;;
29422;SDS011;16399;51.686;8.684;2023-06-24T06:12:10;8.43;;;4.70;;
29422;SDS011;16399;51.686;8.684;2023-06-24T06:15:13;8.40;;;5.08;;
29422;SDS011;16399;51.686;8.684;2023-06-24T06:18:15;10.95;;;5.40;;
29422;SDS011;16399;51.686;8.684;2023-06-24T06:21:20;12.37;;;5.12;;
29422;SDS011;16399;51.686;8.684;2023-06-24T06:24:23;9.85;;;5.47;;
29422;SDS011;16399;51.686;8.684;2023-06-24T06:27:25;11.45;;;5.40;;
29422;SDS011;16399;51.686;8.684;2023-06-24T06:30:27;10.15;;;5.60;;
29422;SDS011;16399;51.686;8.684;2023-06-24T06:33:30;10.40;;;5.22;;
29422;SDS011;16399;51.686;8.684;2023-06-24T06:36:32;8.75;;;4.60;;
29422;SDS011;16399;51.686;8.684;2023-06-24T06:39:34;10.30;;;5.33;;
29422;SDS011;16399;51.686;8.684;2023-06-24T06:42:37;8.38;;;4.85;;
29422;SDS011;16399;51.686;8.684;2023-06-24T06:45:39;8.03;;;4.53;;
29422;SDS011;16399;51.686;8.684;2023-06-24T06:48:41;9.65;;;5.03;;
29422;SDS011;16399;51.686;8.684;2023-06-24T06:51:43;10.58;;;4.67;;
29422;SDS011;16399;51.686;8.684;2023-06-24T06:54:46;12.25;;;5.62;;
29422;SDS011;16399;51.686;8.684;2023-06-24T06:57:48;12.28;;;4.60;;
29422;SDS011;16399;51.686;8.684;2023-06-24T07:00:50;7.28;;;4.70;;
29422;SDS011;16399;51.686;8.684;2023-06-24T07:03:53;6.87;;;4.17;;
29422;SDS011;16399;51.686;8.684;2023-06-24T07:06:55;6.80;;;4.10;;
29422;SDS011;16399;51.686;8.684;2023-06-24T07:09:57;9.63;;;5.05;;
29422;SDS011;16399;51.686;8.684;2023-06-24T07:13:00;7.67;;;4.15;;
29422;SDS011;16399;51.686;8.684;2023-06-24T07:16:03;8.78;;;4.87;;
29422;SDS011;16399;51.686;8.684;2023-06-24T07:19:05;7.22;;;4.75;;
29422;SDS011;16399;51.686;8.684;2023-06-24T07:22:07;8.08;;;4.47;;
29422;SDS011;16399;51.686;8.684;2023-06-24T07:25:10;7.72;;;4.35;;
29422;SDS011;16399;51.686;8.684;2023-06-24T07:28:13;7.92;;;4.20;;
29422;SDS011;16399;51.686;8.684;2023-06-24T07:31:15;7.35;;;4.12;;
29422;SDS011;16399;51.686;8.684;2023-06-24T07:34:17;7.53;;;4.72;;
29422;SDS011;16399;51.686;8.684;2023-06-24T07:37:19;8.80;;;5.08;;
29422;SDS011;16399;51.686;8.684;2023-06-24T07:40:22;9.45;;;4.55;;
29422;SDS011;16399;51.686;8.684;2023-06-24T07:43:24;8.95;;;4.05;;
29422;SDS011;16399;51.686;8.684;2023-06-24T07:46:26;6.47;;;4.10;;
29422;SDS011;16399;51.686;8.684;2023-06-24T07:49:28;9.63;;;4.92;;
29422;SDS011;16399;51.686;8.684;2023-06-24T07:52:31;7.60;;;4.05;;
29422;SDS011;16399;51.686;8.684;2023-06-24T07:55:33;6.70;;;3.92;;
29422;SDS011;16399;51.686;8.684;2023-06-24T07:58:35;9.43;;;4.72;;
29422;SDS011;16399;51.686;8.684;2023-06-24T08:01:38;6.00;;;4.22;;
29422;SDS011;16399;51.686;8.684;2023-06-24T08:04:41;6.42;;;3.62;;
29422;SDS011;16399;51.686;8.684;2023-06-24T08:07:43;7.95;;;3.70;;
29422;SDS011;16399;51.686;8.684;2023-06-24T08:10:46;6.80;;;4.20;;
29422;SDS011;16399;51.686;8.684;2023-06-24T08:13:48;8.25;;;4.12;;
29422;SDS011;16399;51.686;8.684;2023-06-24T08:16:50;7.55;;;3.90;;
29422;SDS011;16399;51.686;8.684;2023-06-24T08:19:53;7.67;;;4.17;;
29422;SDS011;16399;51.686;8.684;2023-06-24T08:22:55;5.47;;;3.45;;
29422;SDS011;16399;51.686;8.684;2023-06-24T08:25:57;5.25;;;3.58;;
29422;SDS011;16399;51.686;8.684;2023-06-24T08:29:00;8.35;;;4.33;;
29422;SDS011;16399;51.686;8.684;2023-06-24T08:32:02;5.92;;;3.80;;
29422;SDS011;16399;51.686;8.684;2023-06-24T08:35:05;8.55;;;4.00;;
29422;SDS011;16399;51.686;8.684;2023-06-24T08:38:08;6.83;;;3.62;;
29422;SDS011;16399;51.686;8.684;2023-06-24T08:41:11;7.58;;;4.55;;
29422;SDS011;16399;51.686;8.684;2023-06-24T08:44:13;7.85;;;6.15;;
29422;SDS011;16399;51.686;8.684;2023-06-24T08:47:15;7.45;;;3.72;;
29422;SDS011;16399;51.686;8.684;2023-06-24T08:50:19;5.87;;;3.58;;
29422;SDS011;16399;51.686;8.684;2023-06-24T08:53:22;5.80;;;3.67;;
29422;SDS011;16399;51.686;8.684;2023-06-24T08:56:26;5.87;;;4.05;;
29422;SDS011;16399;51.686;8.684;2023-06-24T08:59:29;7.80;;;4.17;;
29422;SDS011;16399;51.686;8.684;2023-06-24T09:02:31;5.83;;;3.92;;
29422;SDS011;16399;51.686;8.684;2023-06-24T09:05:35;12.55;;;4.65;;
29422;SDS011;16399;51.686;8.684;2023-06-24T09:08:37;6.17;;;4.33;;
29422;SDS011;16399;51.686;8.684;2023-06-24T09:11:40;6.17;;;3.70;;
29422;SDS011;16399;51.686;8.684;2023-06-24T09:14:42;7.00;;;4.10;;
29422;SDS011;16399;51.686;8.684;2023-06-24T09:17:50;8.18;;;3.65;;
29422;SDS011;16399;51.686;8.684;2023-06-24T09:20:52;8.65;;;3.90;;
29422;SDS011;16399;51.686;8.684;2023-06-24T09:23:57;6.33;;;3.37;;
29422;SDS011;16399;51.686;8.684;2023-06-24T09:27:00;7.12;;;3.92;;
29422;SDS011;16399;51.686;8.684;2023-06-24T09:30:16;6.37;;;3.35;;
29422;SDS011;16399;51.686;8.684;2023-06-24T09:33:21;7.22;;;3.98;;
29422;SDS011;16399;51.686;8.684;2023-06-24T09:36:23;6.37;;;4.35;;
29422;SDS011;16399;51.686;8.684;2023-06-24T09:39:26;7.25;;;3.85;;
29422;SDS011;16399;51.686;8.684;2023-06-24T09:42:30;4.53;;;3.20;;
29422;SDS011;16399;51.686;8.684;2023-06-24T09:45:33;6.83;;;3.40;;
29422;SDS011;16399;51.686;8.684;2023-06-24T09:48:35;13.58;;;3.50;;
29422;SDS011;16399;51.686;8.684;2023-06-24T09:51:38;6.97;;;4.12;;
29422;SDS011;16399;51.686;8.684;2023-06-24T09:54:42;5.20;;;3.77;;
29422;SDS011;16399;51.686;8.684;2023-06-24T09:57:50;8.88;;;3.67;;
29422;SDS011;16399;51.686;8.684;2023-06-24T10:00:52;6.05;;;4.17;;
29422;SDS011;16399;51.686;8.684;2023-06-24T10:03:56;6.83;;;3.55;;
29422;SDS011;16399;51.686;8.684;2023-06-24T10:06:58;8.60;;;4.67;;
29422;SDS011;16399;51.686;8.684;2023-06-24T10:10:02;5.28;;;3.47;;
29422;SDS011;16399;51.686;8.684;2023-06-24T10:13:05;6.08;;;3.75;;
29422;SDS011;16399;51.686;8.684;2023-06-24T10:16:07;8.65;;;4.75;;
29422;SDS011;16399;51.686;8.684;2023-06-24T10:19:10;8.60;;;4.95;;
29422;SDS011;16399;51.686;8.684;2023-06-24T10:22:14;7.30;;;4.67;;
29422;SDS011;16399;51.686;8.684;2023-06-24T10:25:16;8.00;;;5.10;;
29422;SDS011;16399;51.686;8.684;2023-06-24T10:28:18;8.80;;;5.50;;
29422;SDS011;16399;51.686;8.684;2023-06-24T10:31:34;8.95;;;5.45;;
29422;SDS011;16399;51.686;8.684;2023-06-24T10:34:45;9.20;;;5.60;;
29422;SDS011;16399;51.686;8.684;2023-06-24T10:37:55;8.05;;;5.72;;
29422;SDS011;16399;51.686;8.684;2023-06-24T10:40:58;9.38;;;5.45;;
29422;SDS011;16399;51.686;8.684;2023-06-24T10:44:07;9.88;;;5.85;;
29422;SDS011;16399;51.686;8.684;2023-06-24T10:47:06;13.72;;;6.60;;
29422;SDS011;16399;51.686;8.684;2023-06-24T10:50:10;7.35;;;5.60;;
29422;SDS011;16399;51.686;8.684;2023-06-24T10:53:13;10.58;;;5.37;;
29422;SDS011;16399;51.686;8.684;2023-06-24T10:56:18;8.28;;;5.12;;
29422;SDS011;16399;51.686;8.684;2023-06-24T10:59:20;9.05;;;6.03;;
29422;SDS011;16399;51.686;8.684;2023-06-24T11:02:24;13.08;;;5.37;;
29422;SDS011;16399;51.686;8.684;2023-06-24T11:08:29;10.63;;;5.85;;
29422;SDS011;16399;51.686;8.684;2023-06-24T11:11:31;10.53;;;5.20;;
29422;SDS011;16399;51.686;8.684;2023-06-24T11:14:33;8.63;;;5.62;;
29422;SDS011;16399;51.686;8.684;2023-06-24T11:17:36;9.63;;;5.65;;
29422;SDS011;16399;51.686;8.684;2023-06-24T11:20:39;10.23;;;5.70;;
29422;SDS011;16399;51.686;8.684;2023-06-24T11:23:41;9.45;;;5.35;;
29422;SDS011;16399;51.686;8.684;2023-06-24T11:26:45;8.30;;;5.08;;
29422;SDS011;16399;51.686;8.684;2023-06-24T11:29:47;8.63;;;5.53;;
29422;SDS011;16399;51.686;8.684;2023-06-24T11:32:50;9.30;;;5.50;;
29422;SDS011;16399;51.686;8.684;2023-06-24T11:35:52;8.98;;;5.20;;
29422;SDS011;16399;51.686;8.684;2023-06-24T11:38:54;7.30;;;5.47;;
29422;SDS011;16399;51.686;8.684;2023-06-24T11:41:57;10.13;;;4.78;;
29422;SDS011;16399;51.686;8.684;2023-06-24T11:45:00;8.15;;;4.60;;
29422;SDS011;16399;51.686;8.684;2023-06-24T11:48:03;8.53;;;5.75;;
29422;SDS011;16399;51.686;8.684;2023-06-24T11:51:13;8.60;;;5.20;;
29422;SDS011;16399;51.686;8.684;2023-06-24T11:54:16;7.80;;;5.00;;
29422;SDS011;16399;51.686;8.684;2023-06-24T12:00:22;7.17;;;5.12;;
29422;SDS011;16399;51.686;8.684;2023-06-24T12:03:29;18.77;;;5.75;;
29422;SDS011;16399;51.686;8.684;2023-06-24T12:06:33;10.68;;;5.58;;
29422;SDS011;16399;51.686;8.684;2023-06-24T12:09:36;9.48;;;5.33;;
29422;SDS011;16399;51.686;8.684;2023-06-24T12:12:39;8.28;;;4.15;;
29422;SDS011;16399;51.686;8.684;2023-06-24T12:15:41;6.78;;;4.10;;
29422;SDS011;16399;51.686;8.684;2023-06-24T12:18:44;8.33;;;4.90;;
29422;SDS011;16399;51.686;8.684;2023-06-24T12:21:46;7.67;;;5.20;;
29422;SDS011;16399;51.686;8.684;2023-06-24T12:24:48;7.62;;;4.50;;
29422;SDS011;16399;51.686;8.684;2023-06-24T12:27:51;6.33;;;3.90;;
29422;SDS011;16399;51.686;8.684;2023-06-24T12:30:53;8.65;;;4.03;;
29422;SDS011;16399;51.686;8.684;2023-06-24T12:33:55;7.03;;;4.45;;
29422;SDS011;16399;51.686;8.684;2023-06-24T12:36:57;7.28;;;4.50;;
29422;SDS011;16399;51.686;8.684;2023-06-24T12:40:00;6.87;;;4.85;;
29422;SDS011;16399;51.686;8.684;2023-06-24T12:43:03;8.70;;;4.97;;
29422;SDS011;16399;51.686;8.684;2023-06-24T12:46:06;7.05;;;4.55;;
29422;SDS011;16399;51.686;8.684;2023-06-24T12:49:08;8.20;;;4.58;;
29422;SDS011;16399;51.686;8.684;2023-06-24T12:52:11;6.05;;;3.98;;
29422;SDS011;16399;51.686;8.684;2023-06-24T12:55:14;5.67;;;3.58;;
29422;SDS011;16399;51.686;8.684;2023-06-24T12:58:21;7.78;;;4.70;;
29422;SDS011;16399;51.686;8.684;2023-06-24T13:01:24;7.00;;;4.55;;
29422;SDS011;16399;51.686;8.684;2023-06-24T13:04:26;6.72;;;3.15;;
29422;SDS011;16399;51.686;8.684;2023-06-24T13:07:28;8.38;;;4.28;;
29422;SDS011;16399;51.686;8.684;2023-06-24T13:10:32;5.85;;;3.85;;
29422;SDS011;16399;51.686;8.684;2023-06-24T13:13:34;8.98;;;3.77;;
29422;SDS011;16399;51.686;8.684;2023-06-24T13:16:37;6.00;;;3.67;;
29422;SDS011;16399;51.686;8.684;2023-06-24T13:19:39;6.15;;;3.90;;
29422;SDS011;16399;51.686;8.684;2023-06-24T13:22:41;6.65;;;3.75;;
29422;SDS011;16399;51.686;8.684;2023-06-24T13:25:44;5.47;;;3.67;;
29422;SDS011;16399;51.686;8.684;2023-06-24T13:28:46;6.85;;;3.85;;
29422;SDS011;16399;51.686;8.684;2023-06-24T13:31:49;10.77;;;5.27;;
29422;SDS011;16399;51.686;8.684;2023-06-24T13:34:52;6.35;;;4.30;;
29422;SDS011;16399;51.686;8.684;2023-06-24T13:37:54;7.80;;;4.05;;
29422;SDS011;16399;51.686;8.684;2023-06-24T13:40:58;7.35;;;4.40;;
29422;SDS011;16399;51.686;8.684;2023-06-24T13:44:05;8.78;;;4.12;;
29422;SDS011;16399;51.686;8.684;2023-06-24T13:47:05;7.42;;;4.67;;
29422;SDS011;16399;51.686;8.684;2023-06-24T13:50:08;6.67;;;4.30;;
29422;SDS011;16399;51.686;8.684;2023-06-24T13:53:11;6.10;;;3.98;;
29422;SDS011;16399;51.686;8.684;2023-06-24T13:56:13;6.25;;;4.30;;
29422;SDS011;16399;51.686;8.684;2023-06-24T13:59:15;5.95;;;4.08;;
29422;SDS011;16399;51.686;8.684;2023-06-24T14:02:18;7.08;;;4.17;;
29422;SDS011;16399;51.686;8.684;2023-06-24T14:05:20;6.97;;;4.35;;
29422;SDS011;16399;51.686;8.684;2023-06-24T14:08:22;7.78;;;4.72;;
29422;SDS011;16399;51.686;8.684;2023-06-24T14:11:25;7.53;;;4.70;;
29422;SDS011;16399;51.686;8.684;2023-06-24T14:14:27;8.35;;;4.67;;
29422;SDS011;16399;51.686;8.684;2023-06-24T14:17:29;5.80;;;3.85;;
29422;SDS011;16399;51.686;8.684;2023-06-24T14:20:32;6.10;;;3.75;;
29422;SDS011;16399;51.686;8.684;2023-06-24T14:23:34;7.35;;;4.80;;
29422;SDS011;16399;51.686;8.684;2023-06-24T14:26:37;7.33;;;4.45;;
29422;SDS011;16399;51.686;8.684;2023-06-24T14:29:39;7.03;;;4.62;;
29422;SDS011;16399;51.686;8.684;2023-06-24T14:32:41;7.45;;;5.12;;
29422;SDS011;16399;51.686;8.684;2023-06-24T14:35:44;9.48;;;4.28;;
29422;SDS011;16399;51.686;8.684;2023-06-24T14:38:46;7.70;;;4.08;;
29422;SDS011;16399;51.686;8.684;2023-06-24T14:41:48;7.62;;;4.60;;
29422;SDS011;16399;51.686;8.684;2023-06-24T14:44:51;8.63;;;4.72;;
29422;SDS011;16399;51.686;8.684;2023-06-24T14:47:53;8.18;;;5.33;;
29422;SDS011;16399;51.686;8.684;2023-06-24T14:50:57;6.33;;;5.12;;
29422;SDS011;16399;51.686;8.684;2023-06-24T14:53:59;8.75;;;5.72;;
29422;SDS011;16399;51.686;8.684;2023-06-24T14:57:02;7.33;;;5.12;;
29422;SDS011;16399;51.686;8.684;2023-06-24T15:00:10;6.05;;;4.45;;
29422;SDS011;16399;51.686;8.684;2023-06-24T15:06:10;6.53;;;4.12;;
29422;SDS011;16399;51.686;8.684;2023-06-24T15:09:12;6.35;;;4.08;;
29422;SDS011;16399;51.686;8.684;2023-06-24T15:12:15;6.28;;;4.35;;
29422;SDS011;16399;51.686;8.684;2023-06-24T15:15:17;5.90;;;4.22;;
29422;SDS011;16399;51.686;8.684;2023-06-24T15:18:19;8.43;;;3.87;;
29422;SDS011;16399;51.686;8.684;2023-06-24T15:21:22;5.97;;;3.83;;
29422;SDS011;16399;51.686;8.684;2023-06-24T15:24:24;6.65;;;4.03;;
29422;SDS011;16399;51.686;8.684;2023-06-24T15:27:26;7.55;;;4.62;;
29422;SDS011;16399;51.686;8.684;2023-06-24T15:30:28;10.32;;;4.10;;
29422;SDS011;16399;51.686;8.684;2023-06-24T15:33:31;7.45;;;4.35;;
29422;SDS011;16399;51.686;8.684;2023-06-24T15:36:33;11.18;;;4.80;;
29422;SDS011;16399;51.686;8.684;2023-06-24T15:39:35;7.95;;;4.40;;
29422;SDS011;16399;51.686;8.684;2023-06-24T15:42:38;5.87;;;4.30;;
29422;SDS011;16399;51.686;8.684;2023-06-24T15:45:40;8.70;;;4.55;;
29422;SDS011;16399;51.686;8.684;2023-06-24T15:48:42;8.18;;;4.58;;
29422;SDS011;16399;51.686;8.684;2023-06-24T15:51:44;7.72;;;4.50;;
29422;SDS011;16399;51.686;8.684;2023-06-24T15:54:47;5.97;;;4.17;;
29422;SDS011;16399;51.686;8.684;2023-06-24T15:57:49;5.62;;;3.70;;
29422;SDS011;16399;51.686;8.684;2023-06-24T16:00:51;6.00;;;4.30;;
29422;SDS011;16399;51.686;8.684;2023-06-24T16:03:54;9.98;;;5.22;;
29422;SDS011;16399;51.686;8.684;2023-06-24T16:06:56;6.65;;;4.08;;
29422;SDS011;16399;51.686;8.684;2023-06-24T16:09:58;7.72;;;4.70;;
29422;SDS011;16399;51.686;8.684;2023-06-24T16:13:00;8.48;;;5.22;;
29422;SDS011;16399;51.686;8.684;2023-06-24T16:16:03;6.90;;;5.20;;
29422;SDS011;16399;51.686;8.684;2023-06-24T16:19:05;8.30;;;5.00;;
29422;SDS011;16399;51.686;8.684;2023-06-24T16:22:08;8.58;;;5.25;;
29422;SDS011;16399;51.686;8.684;2023-06-24T16:25:10;8.40;;;5.00;;
29422;SDS011;16399;51.686;8.684;2023-06-24T16:28:12;6.47;;;3.85;;
29422;SDS011;16399;51.686;8.684;2023-06-24T16:31:15;7.47;;;4.25;;
29422;SDS011;16399;51.686;8.684;2023-06-24T16:34:17;9.58;;;4.95;;
29422;SDS011;16399;51.686;8.684;2023-06-24T16:37:19;8.85;;;5.70;;
29422;SDS011;16399;51.686;8.684;2023-06-24T16:40:22;7.05;;;5.00;;
29422;SDS011;16399;51.686;8.684;2023-06-24T16:43:24;10.03;;;5.65;;
29422;SDS011;16399;51.686;8.684;2023-06-24T16:46:26;8.63;;;5.17;;
29422;SDS011;16399;51.686;8.684;2023-06-24T16:49:29;10.45;;;4.60;;
29422;SDS011;16399;51.686;8.684;2023-06-24T16:52:31;8.68;;;4.95;;
29422;SDS011;16399;51.686;8.684;2023-06-24T16:55:33;8.25;;;5.33;;
29422;SDS011;16399;51.686;8.684;2023-06-24T16:58:35;10.55;;;5.72;;
29422;SDS011;16399;51.686;8.684;2023-06-24T17:01:39;11.33;;;4.87;;
29422;SDS011;16399;51.686;8.684;2023-06-24T17:04:41;7.05;;;5.17;;
29422;SDS011;16399;51.686;8.684;2023-06-24T17:07:43;8.98;;;4.72;;
29422;SDS011;16399;51.686;8.684;2023-06-24T17:10:45;8.45;;;5.33;;
29422;SDS011;16399;51.686;8.684;2023-06-24T17:13:48;7.65;;;5.25;;
29422;SDS011;16399;51.686;8.684;2023-06-24T17:16:51;8.23;;;5.53;;
29422;SDS011;16399;51.686;8.684;2023-06-24T17:19:53;9.85;;;5.20;;
29422;SDS011;16399;51.686;8.684;2023-06-24T17:22:55;7.12;;;5.08;;
29422;SDS011;16399;51.686;8.684;2023-06-24T17:25:57;9.58;;;5.25;;
29422;SDS011;16399;51.686;8.684;2023-06-24T17:29:00;13.35;;;5.92;;
29422;SDS011;16399;51.686;8.684;2023-06-24T17:32:03;8.75;;;5.53;;
29422;SDS011;16399;51.686;8.684;2023-06-24T17:35:05;8.08;;;5.42;;
29422;SDS011;16399;51.686;8.684;2023-06-24T17:38:08;9.40;;;5.53;;
29422;SDS011;16399;51.686;8.684;2023-06-24T17:41:10;9.83;;;5.50;;
29422;SDS011;16399;51.686;8.684;2023-06-24T17:44:12;7.60;;;5.78;;
29422;SDS011;16399;51.686;8.684;2023-06-24T17:47:15;7.78;;;5.55;;
29422;SDS011;16399;51.686;8.684;2023-06-24T17:50:17;8.43;;;5.53;;
29422;SDS011;16399;51.686;8.684;2023-06-24T17:53:22;9.85;;;6.35;;
29422;SDS011;16399;51.686;8.684;2023-06-24T17:56:24;8.45;;;5.58;;
29422;SDS011;16399;51.686;8.684;2023-06-24T17:59:28;8.25;;;5.00;;
29422;SDS011;16399;51.686;8.684;2023-06-24T18:02:31;9.05;;;6.12;;
29422;SDS011;16399;51.686;8.684;2023-06-24T18:05:33;9.80;;;5.80;;
29422;SDS011;16399;51.686;8.684;2023-06-24T18:08:36;9.58;;;5.83;;
29422;SDS011;16399;51.686;8.684;2023-06-24T18:11:38;8.55;;;5.28;;
29422;SDS011;16399;51.686;8.684;2023-06-24T18:14:41;8.73;;;5.50;;
29422;SDS011;16399;51.686;8.684;2023-06-24T18:17:43;7.17;;;5.47;;
29422;SDS011;16399;51.686;8.684;2023-06-24T18:20:45;7.60;;;5.62;;
29422;SDS011;16399;51.686;8.684;2023-06-24T18:23:47;7.60;;;5.75;;
29422;SDS011;16399;51.686;8.684;2023-06-24T18:26:50;11.28;;;6.37;;
29422;SDS011;16399;51.686;8.684;2023-06-24T18:29:52;8.95;;;5.35;;
29422;SDS011;16399;51.686;8.684;2023-06-24T18:32:54;7.25;;;5.00;;
29422;SDS011;16399;51.686;8.684;2023-06-24T18:35:56;12.33;;;5.85;;